sensor_id;sensor_type;location;lat;lon;timestamp;temperature;humidity
44431;DHT22;30135;47.866;-4.222;2023-02-27T00:01:35;6.00;68.30
44431;DHT22;30135;47.866;-4.222;2023-02-27T00:04:01;5.90;68.30
44431;DHT22;30135;47.866;-4.222;2023-02-27T00:06:27;5.90;68.40
44431;DHT22;30135;47.866;-4.222;2023-02-27T00:08:54;5.90;68.40
44431;DHT22;30135;47.866;-4.222;2023-02-27T00:11:20;5.90;68.50
44431;DHT22;30135;47.866;-4.222;2023-02-27T00:13:46;5.90;68.50
44431;DHT22;30135;47.866;-4.222;2023-02-27T00:16:15;5.90;68.60
44431;DHT22;30135;47.866;-4.222;2023-02-27T00:18:41;5.90;68.60
44431;DHT22;30135;47.866;-4.222;2023-02-27T00:21:07;5.90;68.60
44431;DHT22;30135;47.866;-4.222;2023-02-27T00:23:32;5.90;68.60
44431;DHT22;30135;47.866;-4.222;2023-02-27T00:25:59;5.90;68.60
44431;DHT22;30135;47.866;-4.222;2023-02-27T00:28:26;5.90;68.60
44431;DHT22;30135;47.866;-4.222;2023-02-27T00:30:53;5.90;68.60
44431;DHT22;30135;47.866;-4.222;2023-02-27T00:33:18;5.90;69.50
44431;DHT22;30135;47.866;-4.222;2023-02-27T00:35:44;5.90;68.70
44431;DHT22;30135;47.866;-4.222;2023-02-27T00:38:22;5.90;68.70
44431;DHT22;30135;47.866;-4.222;2023-02-27T00:40:48;5.90;68.70
44431;DHT22;30135;47.866;-4.222;2023-02-27T00:43:14;5.90;68.60
44431;DHT22;30135;47.866;-4.222;2023-02-27T00:45:40;5.90;68.70
44431;DHT22;30135;47.866;-4.222;2023-02-27T00:48:06;5.80;68.60
44431;DHT22;30135;47.866;-4.222;2023-02-27T00:50:32;5.80;68.70
44431;DHT22;30135;47.866;-4.222;2023-02-27T00:52:58;5.80;68.70
44431;DHT22;30135;47.866;-4.222;2023-02-27T00:55:24;5.80;68.70
44431;DHT22;30135;47.866;-4.222;2023-02-27T00:57:50;5.80;68.80
44431;DHT22;30135;47.866;-4.222;2023-02-27T01:00:16;5.80;68.80
44431;DHT22;30135;47.866;-4.222;2023-02-27T01:02:42;5.80;68.80
44431;DHT22;30135;47.866;-4.222;2023-02-27T01:05:08;5.80;69.00
44431;DHT22;30135;47.866;-4.222;2023-02-27T01:07:35;5.70;69.00
44431;DHT22;30135;47.866;-4.222;2023-02-27T01:10:05;5.70;69.00
44431;DHT22;30135;47.866;-4.222;2023-02-27T01:12:33;5.70;69.00
44431;DHT22;30135;47.866;-4.222;2023-02-27T01:14:59;5.70;69.10
44431;DHT22;30135;47.866;-4.222;2023-02-27T01:17:25;5.70;69.20
44431;DHT22;30135;47.866;-4.222;2023-02-27T01:19:50;5.60;69.30
44431;DHT22;30135;47.866;-4.222;2023-02-27T01:22:16;5.60;69.40
44431;DHT22;30135;47.866;-4.222;2023-02-27T01:24:42;5.60;69.50
44431;DHT22;30135;47.866;-4.222;2023-02-27T01:27:08;5.60;69.50
44431;DHT22;30135;47.866;-4.222;2023-02-27T01:29:34;5.60;69.60
44431;DHT22;30135;47.866;-4.222;2023-02-27T01:32:00;5.50;69.60
44431;DHT22;30135;47.866;-4.222;2023-02-27T01:34:26;5.50;69.70
44431;DHT22;30135;47.866;-4.222;2023-02-27T01:36:52;5.50;69.80
44431;DHT22;30135;47.866;-4.222;2023-02-27T01:39:18;5.50;69.90
44431;DHT22;30135;47.866;-4.222;2023-02-27T01:41:45;5.50;69.90
44431;DHT22;30135;47.866;-4.222;2023-02-27T01:44:12;5.40;69.90
44431;DHT22;30135;47.866;-4.222;2023-02-27T01:46:39;5.40;69.90
44431;DHT22;30135;47.866;-4.222;2023-02-27T01:49:13;5.40;70.00
44431;DHT22;30135;47.866;-4.222;2023-02-27T01:51:53;5.40;70.10
44431;DHT22;30135;47.866;-4.222;2023-02-27T01:54:23;5.30;70.10
44431;DHT22;30135;47.866;-4.222;2023-02-27T01:56:50;5.30;70.10
44431;DHT22;30135;47.866;-4.222;2023-02-27T01:59:17;5.20;70.20
44431;DHT22;30135;47.866;-4.222;2023-02-27T02:01:44;5.20;70.10
44431;DHT22;30135;47.866;-4.222;2023-02-27T02:04:25;5.20;70.10
44431;DHT22;30135;47.866;-4.222;2023-02-27T02:07:13;5.10;70.20
44431;DHT22;30135;47.866;-4.222;2023-02-27T02:09:47;5.10;70.20
44431;DHT22;30135;47.866;-4.222;2023-02-27T02:12:17;5.00;70.30
44431;DHT22;30135;47.866;-4.222;2023-02-27T02:14:47;5.00;70.50
44431;DHT22;30135;47.866;-4.222;2023-02-27T02:17:32;5.00;70.60
44431;DHT22;30135;47.866;-4.222;2023-02-27T02:27:07;4.90;70.90
44431;DHT22;30135;47.866;-4.222;2023-02-27T02:40:53;4.60;71.00
44431;DHT22;30135;47.866;-4.222;2023-02-27T02:46:41;4.60;71.20
44431;DHT22;30135;47.866;-4.222;2023-02-27T02:55:09;4.50;71.50
44431;DHT22;30135;47.866;-4.222;2023-02-27T02:57:47;4.40;71.50
44431;DHT22;30135;47.866;-4.222;2023-02-27T03:00:32;4.40;71.60
44431;DHT22;30135;47.866;-4.222;2023-02-27T03:03:47;4.40;71.80
44431;DHT22;30135;47.866;-4.222;2023-02-27T03:06:23;4.30;71.80
44431;DHT22;30135;47.866;-4.222;2023-02-27T03:09:34;4.30;72.10
44431;DHT22;30135;47.866;-4.222;2023-02-27T03:12:04;4.30;72.20
44431;DHT22;30135;47.866;-4.222;2023-02-27T03:14:46;4.30;72.40
44431;DHT22;30135;47.866;-4.222;2023-02-27T03:17:49;4.20;72.50
44431;DHT22;30135;47.866;-4.222;2023-02-27T03:20:23;4.30;72.70
44431;DHT22;30135;47.866;-4.222;2023-02-27T03:23:12;4.30;72.80
44431;DHT22;30135;47.866;-4.222;2023-02-27T03:25:51;4.30;72.80
44431;DHT22;30135;47.866;-4.222;2023-02-27T03:28:24;4.30;72.80
44431;DHT22;30135;47.866;-4.222;2023-02-27T03:30:59;4.40;72.90
44431;DHT22;30135;47.866;-4.222;2023-02-27T03:33:47;4.40;73.00
44431;DHT22;30135;47.866;-4.222;2023-02-27T03:36:25;4.40;73.00
44431;DHT22;30135;47.866;-4.222;2023-02-27T03:39:09;4.40;73.00
44431;DHT22;30135;47.866;-4.222;2023-02-27T03:41:51;4.40;73.00
44431;DHT22;30135;47.866;-4.222;2023-02-27T03:47:19;4.40;73.10
44431;DHT22;30135;47.866;-4.222;2023-02-27T03:49:45;4.40;73.10
44431;DHT22;30135;47.866;-4.222;2023-02-27T03:52:11;4.40;73.20
44431;DHT22;30135;47.866;-4.222;2023-02-27T03:54:49;4.40;73.30
44431;DHT22;30135;47.866;-4.222;2023-02-27T03:57:19;4.40;73.30
44431;DHT22;30135;47.866;-4.222;2023-02-27T03:59:52;4.40;73.30
44431;DHT22;30135;47.866;-4.222;2023-02-27T04:02:19;4.50;73.30
44431;DHT22;30135;47.866;-4.222;2023-02-27T04:04:45;4.50;73.30
44431;DHT22;30135;47.866;-4.222;2023-02-27T04:10:39;4.50;73.30
44431;DHT22;30135;47.866;-4.222;2023-02-27T04:13:26;4.50;73.20
44431;DHT22;30135;47.866;-4.222;2023-02-27T04:24:29;4.50;73.10
44431;DHT22;30135;47.866;-4.222;2023-02-27T04:35:53;4.40;73.10
44431;DHT22;30135;47.866;-4.222;2023-02-27T04:38:28;4.40;73.10
44431;DHT22;30135;47.866;-4.222;2023-02-27T04:41:24;4.40;73.10
44431;DHT22;30135;47.866;-4.222;2023-02-27T04:43:53;4.40;73.20
44431;DHT22;30135;47.866;-4.222;2023-02-27T04:46:22;4.40;73.30
44431;DHT22;30135;47.866;-4.222;2023-02-27T04:48:54;4.40;73.40
44431;DHT22;30135;47.866;-4.222;2023-02-27T04:51:51;4.40;73.40
44431;DHT22;30135;47.866;-4.222;2023-02-27T04:54:24;4.40;73.40
44431;DHT22;30135;47.866;-4.222;2023-02-27T04:56:56;4.40;74.30
44431;DHT22;30135;47.866;-4.222;2023-02-27T04:59:31;4.30;73.40
44431;DHT22;30135;47.866;-4.222;2023-02-27T05:02:22;4.30;73.50
44431;DHT22;30135;47.866;-4.222;2023-02-27T05:04:55;4.40;73.60
44431;DHT22;30135;47.866;-4.222;2023-02-27T05:07:30;4.40;73.60
44431;DHT22;30135;47.866;-4.222;2023-02-27T05:10:03;4.30;73.60
44431;DHT22;30135;47.866;-4.222;2023-02-27T05:12:36;4.40;73.70
44431;DHT22;30135;47.866;-4.222;2023-02-27T05:15:08;4.40;73.70
44431;DHT22;30135;47.866;-4.222;2023-02-27T05:17:48;4.40;73.80
44431;DHT22;30135;47.866;-4.222;2023-02-27T05:20:33;4.40;73.70
44431;DHT22;30135;47.866;-4.222;2023-02-27T05:23:15;4.40;73.70
44431;DHT22;30135;47.866;-4.222;2023-02-27T05:25:59;4.40;73.70
44431;DHT22;30135;47.866;-4.222;2023-02-27T05:28:36;4.40;73.70
44431;DHT22;30135;47.866;-4.222;2023-02-27T05:34:11;4.40;73.80
44431;DHT22;30135;47.866;-4.222;2023-02-27T05:36:52;4.40;73.80
44431;DHT22;30135;47.866;-4.222;2023-02-27T05:39:28;4.40;73.80
44431;DHT22;30135;47.866;-4.222;2023-02-27T05:42:00;4.40;73.80
44431;DHT22;30135;47.866;-4.222;2023-02-27T05:44:32;4.50;73.90
44431;DHT22;30135;47.866;-4.222;2023-02-27T05:47:05;4.40;73.90
44431;DHT22;30135;47.866;-4.222;2023-02-27T05:49:51;4.50;73.90
44431;DHT22;30135;47.866;-4.222;2023-02-27T05:52:24;4.40;73.90
44431;DHT22;30135;47.866;-4.222;2023-02-27T05:55:01;4.40;73.90
44431;DHT22;30135;47.866;-4.222;2023-02-27T05:57:45;4.50;73.90
44431;DHT22;30135;47.866;-4.222;2023-02-27T06:00:16;4.50;74.00
44431;DHT22;30135;47.866;-4.222;2023-02-27T06:03:05;4.50;74.00
44431;DHT22;30135;47.866;-4.222;2023-02-27T06:05:31;4.50;74.00
44431;DHT22;30135;47.866;-4.222;2023-02-27T06:07:57;4.50;74.00
44431;DHT22;30135;47.866;-4.222;2023-02-27T06:10:24;4.50;74.00
44431;DHT22;30135;47.866;-4.222;2023-02-27T06:12:50;4.50;74.00
44431;DHT22;30135;47.866;-4.222;2023-02-27T06:15:16;4.50;73.90
44431;DHT22;30135;47.866;-4.222;2023-02-27T06:17:44;4.50;73.90
44431;DHT22;30135;47.866;-4.222;2023-02-27T06:20:17;4.50;74.80
44431;DHT22;30135;47.866;-4.222;2023-02-27T06:22:43;4.50;74.00
44431;DHT22;30135;47.866;-4.222;2023-02-27T06:25:09;4.50;74.00
44431;DHT22;30135;47.866;-4.222;2023-02-27T06:27:35;4.50;74.10
44431;DHT22;30135;47.866;-4.222;2023-02-27T06:30:01;4.50;74.10
44431;DHT22;30135;47.866;-4.222;2023-02-27T06:32:28;4.50;74.20
44431;DHT22;30135;47.866;-4.222;2023-02-27T06:34:53;4.50;74.20
44431;DHT22;30135;47.866;-4.222;2023-02-27T06:37:20;4.50;74.20
44431;DHT22;30135;47.866;-4.222;2023-02-27T06:39:47;4.50;74.20
44431;DHT22;30135;47.866;-4.222;2023-02-27T06:42:13;4.50;74.20
44431;DHT22;30135;47.866;-4.222;2023-02-27T06:44:39;4.50;74.30
44431;DHT22;30135;47.866;-4.222;2023-02-27T06:47:05;4.50;74.30
44431;DHT22;30135;47.866;-4.222;2023-02-27T06:49:31;4.50;74.20
44431;DHT22;30135;47.866;-4.222;2023-02-27T06:51:57;4.50;74.30
44431;DHT22;30135;47.866;-4.222;2023-02-27T06:54:26;4.50;74.30
44431;DHT22;30135;47.866;-4.222;2023-02-27T06:56:52;4.50;74.30
44431;DHT22;30135;47.866;-4.222;2023-02-27T06:59:17;4.50;74.30
44431;DHT22;30135;47.866;-4.222;2023-02-27T07:01:43;4.50;74.40
44431;DHT22;30135;47.866;-4.222;2023-02-27T07:04:13;4.50;74.40
44431;DHT22;30135;47.866;-4.222;2023-02-27T07:06:40;4.50;74.50
44431;DHT22;30135;47.866;-4.222;2023-02-27T07:09:06;4.50;74.50
44431;DHT22;30135;47.866;-4.222;2023-02-27T07:11:33;4.50;74.50
44431;DHT22;30135;47.866;-4.222;2023-02-27T07:13:59;4.50;74.50
44431;DHT22;30135;47.866;-4.222;2023-02-27T07:16:25;4.50;74.60
44431;DHT22;30135;47.866;-4.222;2023-02-27T07:18:51;4.50;74.70
44431;DHT22;30135;47.866;-4.222;2023-02-27T07:21:17;4.50;74.80
44431;DHT22;30135;47.866;-4.222;2023-02-27T07:23:43;4.50;74.90
44431;DHT22;30135;47.866;-4.222;2023-02-27T07:26:09;4.50;74.90
44431;DHT22;30135;47.866;-4.222;2023-02-27T07:28:35;4.50;75.00
44431;DHT22;30135;47.866;-4.222;2023-02-27T07:31:01;4.50;75.00
44431;DHT22;30135;47.866;-4.222;2023-02-27T07:33:27;4.60;75.10
44431;DHT22;30135;47.866;-4.222;2023-02-27T07:35:53;4.60;75.20
44431;DHT22;30135;47.866;-4.222;2023-02-27T07:38:19;4.60;76.00
44431;DHT22;30135;47.866;-4.222;2023-02-27T07:40:47;4.60;75.30
44431;DHT22;30135;47.866;-4.222;2023-02-27T07:43:13;4.60;75.30
44431;DHT22;30135;47.866;-4.222;2023-02-27T07:45:39;4.60;75.40
44431;DHT22;30135;47.866;-4.222;2023-02-27T07:48:05;4.60;75.40
44431;DHT22;30135;47.866;-4.222;2023-02-27T07:50:31;4.60;75.40
44431;DHT22;30135;47.866;-4.222;2023-02-27T07:52:57;4.60;75.40
44431;DHT22;30135;47.866;-4.222;2023-02-27T07:55:23;4.60;75.50
44431;DHT22;30135;47.866;-4.222;2023-02-27T07:57:49;4.60;75.70
44431;DHT22;30135;47.866;-4.222;2023-02-27T08:00:15;4.60;75.80
44431;DHT22;30135;47.866;-4.222;2023-02-27T08:02:42;4.70;76.00
44431;DHT22;30135;47.866;-4.222;2023-02-27T08:05:08;4.60;76.00
44431;DHT22;30135;47.866;-4.222;2023-02-27T08:07:34;4.70;76.20
44431;DHT22;30135;47.866;-4.222;2023-02-27T08:10:04;4.70;76.20
44431;DHT22;30135;47.866;-4.222;2023-02-27T08:12:30;4.70;76.40
44431;DHT22;30135;47.866;-4.222;2023-02-27T08:15:00;4.80;76.50
44431;DHT22;30135;47.866;-4.222;2023-02-27T08:17:26;4.80;76.50
44431;DHT22;30135;47.866;-4.222;2023-02-27T08:19:52;4.80;76.50
44431;DHT22;30135;47.866;-4.222;2023-02-27T08:22:18;4.80;76.60
44431;DHT22;30135;47.866;-4.222;2023-02-27T08:24:44;4.80;76.60
44431;DHT22;30135;47.866;-4.222;2023-02-27T08:27:10;4.90;76.60
44431;DHT22;30135;47.866;-4.222;2023-02-27T08:29:36;4.90;76.70
44431;DHT22;30135;47.866;-4.222;2023-02-27T08:32:02;4.90;76.70
44431;DHT22;30135;47.866;-4.222;2023-02-27T08:34:29;4.90;76.80
44431;DHT22;30135;47.866;-4.222;2023-02-27T08:36:55;5.00;76.90
44431;DHT22;30135;47.866;-4.222;2023-02-27T08:39:21;5.00;77.70
44431;DHT22;30135;47.866;-4.222;2023-02-27T08:41:51;5.00;77.00
44431;DHT22;30135;47.866;-4.222;2023-02-27T08:44:17;5.00;77.00
44431;DHT22;30135;47.866;-4.222;2023-02-27T08:46:44;5.10;77.10
44431;DHT22;30135;47.866;-4.222;2023-02-27T08:49:18;5.10;77.20
44431;DHT22;30135;47.866;-4.222;2023-02-27T08:51:45;5.10;77.40
44431;DHT22;30135;47.866;-4.222;2023-02-27T08:54:11;5.20;77.30
44431;DHT22;30135;47.866;-4.222;2023-02-27T08:56:37;5.20;77.30
44431;DHT22;30135;47.866;-4.222;2023-02-27T08:59:03;5.20;77.40
44431;DHT22;30135;47.866;-4.222;2023-02-27T09:01:29;5.20;77.50
44431;DHT22;30135;47.866;-4.222;2023-02-27T09:03:59;5.30;77.70
44431;DHT22;30135;47.866;-4.222;2023-02-27T09:06:26;5.30;77.80
44431;DHT22;30135;47.866;-4.222;2023-02-27T09:08:53;5.30;77.80
44431;DHT22;30135;47.866;-4.222;2023-02-27T09:11:19;5.40;77.90
44431;DHT22;30135;47.866;-4.222;2023-02-27T09:13:45;5.40;78.00
44431;DHT22;30135;47.866;-4.222;2023-02-27T09:16:11;5.50;78.00
44431;DHT22;30135;47.866;-4.222;2023-02-27T09:18:37;5.50;78.10
44431;DHT22;30135;47.866;-4.222;2023-02-27T09:21:03;5.60;78.10
44431;DHT22;30135;47.866;-4.222;2023-02-27T09:23:29;5.60;78.20
44431;DHT22;30135;47.866;-4.222;2023-02-27T09:25:55;5.70;78.30
44431;DHT22;30135;47.866;-4.222;2023-02-27T09:28:21;5.70;78.30
44431;DHT22;30135;47.866;-4.222;2023-02-27T09:30:47;5.80;78.40
44431;DHT22;30135;47.866;-4.222;2023-02-27T09:33:13;5.80;78.40
44431;DHT22;30135;47.866;-4.222;2023-02-27T09:35:40;5.80;78.30
44431;DHT22;30135;47.866;-4.222;2023-02-27T09:38:06;5.90;78.50
44431;DHT22;30135;47.866;-4.222;2023-02-27T09:40:38;5.90;78.50
44431;DHT22;30135;47.866;-4.222;2023-02-27T09:43:36;6.00;78.50
44431;DHT22;30135;47.866;-4.222;2023-02-27T09:46:05;6.00;78.50
44431;DHT22;30135;47.866;-4.222;2023-02-27T09:48:42;6.10;78.60
44431;DHT22;30135;47.866;-4.222;2023-02-27T09:51:13;6.10;78.60
44431;DHT22;30135;47.866;-4.222;2023-02-27T09:53:44;6.20;78.80
44431;DHT22;30135;47.866;-4.222;2023-02-27T10:07:48;6.50;78.50
44431;DHT22;30135;47.866;-4.222;2023-02-27T10:11:11;6.60;78.60
44431;DHT22;30135;47.866;-4.222;2023-02-27T10:13:50;6.60;79.20
44431;DHT22;30135;47.866;-4.222;2023-02-27T10:16:24;6.70;78.40
44431;DHT22;30135;47.866;-4.222;2023-02-27T10:19:00;6.70;78.20
44431;DHT22;30135;47.866;-4.222;2023-02-27T10:21:40;6.80;78.20
44431;DHT22;30135;47.866;-4.222;2023-02-27T10:24:32;6.90;78.10
44431;DHT22;30135;47.866;-4.222;2023-02-27T10:27:04;6.90;77.90
44431;DHT22;30135;47.866;-4.222;2023-02-27T10:29:34;7.00;78.00
44431;DHT22;30135;47.866;-4.222;2023-02-27T10:37:33;7.30;77.70
44431;DHT22;30135;47.866;-4.222;2023-02-27T10:40:02;7.40;77.60
44431;DHT22;30135;47.866;-4.222;2023-02-27T10:42:34;7.50;77.30
44431;DHT22;30135;47.866;-4.222;2023-02-27T10:45:05;7.50;76.60
44431;DHT22;30135;47.866;-4.222;2023-02-27T10:47:39;7.60;76.60
44431;DHT22;30135;47.866;-4.222;2023-02-27T10:50:20;7.60;76.30
44431;DHT22;30135;47.866;-4.222;2023-02-27T10:52:50;7.70;75.60
44431;DHT22;30135;47.866;-4.222;2023-02-27T10:55:32;7.70;75.60
44431;DHT22;30135;47.866;-4.222;2023-02-27T10:58:00;7.70;75.20
44431;DHT22;30135;47.866;-4.222;2023-02-27T11:00:55;7.80;75.20
44431;DHT22;30135;47.866;-4.222;2023-02-27T11:03:24;7.90;75.00
44431;DHT22;30135;47.866;-4.222;2023-02-27T11:05:57;7.90;75.00
44431;DHT22;30135;47.866;-4.222;2023-02-27T11:08:28;8.00;74.10
44431;DHT22;30135;47.866;-4.222;2023-02-27T11:11:01;8.00;74.10
44431;DHT22;30135;47.866;-4.222;2023-02-27T11:13:30;8.10;73.60
44431;DHT22;30135;47.866;-4.222;2023-02-27T11:16:07;8.10;73.20
44431;DHT22;30135;47.866;-4.222;2023-02-27T11:18:50;8.20;73.10
44431;DHT22;30135;47.866;-4.222;2023-02-27T11:24:02;8.30;72.10
44431;DHT22;30135;47.866;-4.222;2023-02-27T11:26:52;8.40;71.50
44431;DHT22;30135;47.866;-4.222;2023-02-27T11:29:23;8.40;70.20
44431;DHT22;30135;47.866;-4.222;2023-02-27T11:32:15;8.50;71.30
44431;DHT22;30135;47.866;-4.222;2023-02-27T11:34:49;8.50;70.80
44431;DHT22;30135;47.866;-4.222;2023-02-27T11:37:49;8.60;71.10
44431;DHT22;30135;47.866;-4.222;2023-02-27T11:40:16;8.60;69.80
44431;DHT22;30135;47.866;-4.222;2023-02-27T11:42:48;8.70;69.20
44431;DHT22;30135;47.866;-4.222;2023-02-27T11:47:48;8.70;69.80
44431;DHT22;30135;47.866;-4.222;2023-02-27T11:50:34;8.80;69.80
44431;DHT22;30135;47.866;-4.222;2023-02-27T11:56:22;8.80;68.90
44431;DHT22;30135;47.866;-4.222;2023-02-27T12:01:52;8.90;68.10
44431;DHT22;30135;47.866;-4.222;2023-02-27T12:04:28;8.90;67.50
44431;DHT22;30135;47.866;-4.222;2023-02-27T12:07:23;8.90;67.40
44431;DHT22;30135;47.866;-4.222;2023-02-27T12:15:38;9.00;65.80
44431;DHT22;30135;47.866;-4.222;2023-02-27T12:21:40;9.00;65.70
44431;DHT22;30135;47.866;-4.222;2023-02-27T12:24:24;9.10;64.50
44431;DHT22;30135;47.866;-4.222;2023-02-27T12:27:17;9.10;65.00
44431;DHT22;30135;47.866;-4.222;2023-02-27T12:29:59;9.10;64.00
44431;DHT22;30135;47.866;-4.222;2023-02-27T12:32:41;9.10;64.40
44431;DHT22;30135;47.866;-4.222;2023-02-27T12:35:29;9.10;63.70
44431;DHT22;30135;47.866;-4.222;2023-02-27T12:37:57;9.10;63.40
44431;DHT22;30135;47.866;-4.222;2023-02-27T12:40:36;9.20;63.40
44431;DHT22;30135;47.866;-4.222;2023-02-27T13:00:19;9.20;61.10
44431;DHT22;30135;47.866;-4.222;2023-02-27T13:06:16;9.30;61.50
44431;DHT22;30135;47.866;-4.222;2023-02-27T13:12:29;9.30;60.90
44431;DHT22;30135;47.866;-4.222;2023-02-27T13:14:59;9.30;60.70
44431;DHT22;30135;47.866;-4.222;2023-02-27T13:17:46;9.30;60.70
44431;DHT22;30135;47.866;-4.222;2023-02-27T13:22:51;9.30;60.00
44431;DHT22;30135;47.866;-4.222;2023-02-27T13:25:41;9.30;60.20
44431;DHT22;30135;47.866;-4.222;2023-02-27T13:28:15;9.30;60.20
44431;DHT22;30135;47.866;-4.222;2023-02-27T13:30:48;9.30;60.20
44431;DHT22;30135;47.866;-4.222;2023-02-27T13:33:34;9.30;60.00
44431;DHT22;30135;47.866;-4.222;2023-02-27T13:36:10;9.30;59.70
44431;DHT22;30135;47.866;-4.222;2023-02-27T13:38:49;9.30;59.70
44431;DHT22;30135;47.866;-4.222;2023-02-27T13:43:46;9.30;59.30
44431;DHT22;30135;47.866;-4.222;2023-02-27T13:59:36;9.30;58.80
44431;DHT22;30135;47.866;-4.222;2023-02-27T14:04:51;9.30;58.50
44431;DHT22;30135;47.866;-4.222;2023-02-27T14:07:27;9.30;58.10
44431;DHT22;30135;47.866;-4.222;2023-02-27T14:10:06;9.40;58.20
44431;DHT22;30135;47.866;-4.222;2023-02-27T14:17:44;9.40;57.80
44431;DHT22;30135;47.866;-4.222;2023-02-27T14:20:13;9.40;57.90
44431;DHT22;30135;47.866;-4.222;2023-02-27T14:25:51;9.40;57.50
44431;DHT22;30135;47.866;-4.222;2023-02-27T14:31:30;9.40;57.30
44431;DHT22;30135;47.866;-4.222;2023-02-27T14:34:00;9.40;56.60
44431;DHT22;30135;47.866;-4.222;2023-02-27T14:36:49;9.40;57.00
44431;DHT22;30135;47.866;-4.222;2023-02-27T14:39:21;9.40;56.40
44431;DHT22;30135;47.866;-4.222;2023-02-27T14:44:56;9.40;56.80
44431;DHT22;30135;47.866;-4.222;2023-02-27T14:47:32;9.40;57.10
44431;DHT22;30135;47.866;-4.222;2023-02-27T14:50:04;9.50;57.00
44431;DHT22;30135;47.866;-4.222;2023-02-27T14:52:41;9.50;57.00
44431;DHT22;30135;47.866;-4.222;2023-02-27T14:55:24;9.50;56.90
44431;DHT22;30135;47.866;-4.222;2023-02-27T15:00:42;9.60;56.70
44431;DHT22;30135;47.866;-4.222;2023-02-27T15:03:19;9.60;56.30
44431;DHT22;30135;47.866;-4.222;2023-02-27T15:05:48;9.60;55.80
44431;DHT22;30135;47.866;-4.222;2023-02-27T15:08:20;9.60;55.90
44431;DHT22;30135;47.866;-4.222;2023-02-27T15:10:57;9.60;55.70
44431;DHT22;30135;47.866;-4.222;2023-02-27T15:13:37;9.70;55.90
44431;DHT22;30135;47.866;-4.222;2023-02-27T15:18:53;9.70;55.40
44431;DHT22;30135;47.866;-4.222;2023-02-27T15:21:23;9.70;55.70
44431;DHT22;30135;47.866;-4.222;2023-02-27T15:24:04;9.70;55.70
44431;DHT22;30135;47.866;-4.222;2023-02-27T15:26:37;9.70;55.40
44431;DHT22;30135;47.866;-4.222;2023-02-27T15:29:19;9.70;55.40
44431;DHT22;30135;47.866;-4.222;2023-02-27T15:31:48;9.80;54.90
44431;DHT22;30135;47.866;-4.222;2023-02-27T15:34:14;9.80;54.90
44431;DHT22;30135;47.866;-4.222;2023-02-27T15:36:46;9.80;55.20
44431;DHT22;30135;47.866;-4.222;2023-02-27T15:39:23;9.80;55.20
44431;DHT22;30135;47.866;-4.222;2023-02-27T15:42:01;9.90;55.40
44431;DHT22;30135;47.866;-4.222;2023-02-27T15:44:39;9.90;55.50
44431;DHT22;30135;47.866;-4.222;2023-02-27T15:47:23;9.90;55.50
44431;DHT22;30135;47.866;-4.222;2023-02-27T15:52:32;9.90;55.50
44431;DHT22;30135;47.866;-4.222;2023-02-27T15:55:37;10.00;55.30
44431;DHT22;30135;47.866;-4.222;2023-02-27T15:58:02;10.00;55.10
44431;DHT22;30135;47.866;-4.222;2023-02-27T16:00:33;10.00;55.20
44431;DHT22;30135;47.866;-4.222;2023-02-27T16:03:00;10.00;54.90
44431;DHT22;30135;47.866;-4.222;2023-02-27T16:05:32;10.00;54.50
44431;DHT22;30135;47.866;-4.222;2023-02-27T16:08:00;10.00;54.80
44431;DHT22;30135;47.866;-4.222;2023-02-27T16:10:41;10.00;54.90
44431;DHT22;30135;47.866;-4.222;2023-02-27T16:13:32;10.00;54.40
44431;DHT22;30135;47.866;-4.222;2023-02-27T16:18:50;9.90;54.50
44431;DHT22;30135;47.866;-4.222;2023-02-27T16:21:21;9.90;54.50
44431;DHT22;30135;47.866;-4.222;2023-02-27T16:23:49;9.80;54.50
44431;DHT22;30135;47.866;-4.222;2023-02-27T16:26:34;9.80;54.40
44431;DHT22;30135;47.866;-4.222;2023-02-27T16:29:27;9.80;54.20
44431;DHT22;30135;47.866;-4.222;2023-02-27T16:31:58;9.80;54.70
44431;DHT22;30135;47.866;-4.222;2023-02-27T16:34:33;9.70;54.70
44431;DHT22;30135;47.866;-4.222;2023-02-27T16:37:03;9.70;54.60
44431;DHT22;30135;47.866;-4.222;2023-02-27T16:39:33;9.70;54.50
44431;DHT22;30135;47.866;-4.222;2023-02-27T16:42:00;9.70;54.60
44431;DHT22;30135;47.866;-4.222;2023-02-27T16:44:27;9.60;54.60
44431;DHT22;30135;47.866;-4.222;2023-02-27T16:46:55;9.60;54.50
44431;DHT22;30135;47.866;-4.222;2023-02-27T16:49:28;9.60;54.80
44431;DHT22;30135;47.866;-4.222;2023-02-27T16:52:02;9.50;54.90
44431;DHT22;30135;47.866;-4.222;2023-02-27T16:54:42;9.50;54.90
44431;DHT22;30135;47.866;-4.222;2023-02-27T16:57:08;9.40;54.90
44431;DHT22;30135;47.866;-4.222;2023-02-27T16:59:36;9.40;54.70
44431;DHT22;30135;47.866;-4.222;2023-02-27T17:02:09;9.30;54.70
44431;DHT22;30135;47.866;-4.222;2023-02-27T17:04:37;9.30;55.00
44431;DHT22;30135;47.866;-4.222;2023-02-27T17:07:03;9.20;55.30
44431;DHT22;30135;47.866;-4.222;2023-02-27T17:09:29;9.20;55.40
44431;DHT22;30135;47.866;-4.222;2023-02-27T17:11:56;9.20;55.60
44431;DHT22;30135;47.866;-4.222;2023-02-27T17:14:22;9.20;55.60
44431;DHT22;30135;47.866;-4.222;2023-02-27T17:16:49;9.20;55.70
44431;DHT22;30135;47.866;-4.222;2023-02-27T17:19:15;9.20;55.80
44431;DHT22;30135;47.866;-4.222;2023-02-27T17:21:41;9.20;55.70
44431;DHT22;30135;47.866;-4.222;2023-02-27T17:24:08;9.10;55.80
44431;DHT22;30135;47.866;-4.222;2023-02-27T17:26:34;9.10;55.90
44431;DHT22;30135;47.866;-4.222;2023-02-27T17:29:00;9.10;55.90
44431;DHT22;30135;47.866;-4.222;2023-02-27T17:31:27;9.10;56.00
44431;DHT22;30135;47.866;-4.222;2023-02-27T17:33:54;9.00;56.10
44431;DHT22;30135;47.866;-4.222;2023-02-27T17:36:21;9.00;56.10
44431;DHT22;30135;47.866;-4.222;2023-02-27T17:38:52;8.90;56.10
44431;DHT22;30135;47.866;-4.222;2023-02-27T17:41:19;8.90;56.30
44431;DHT22;30135;47.866;-4.222;2023-02-27T17:43:51;8.90;56.40
44431;DHT22;30135;47.866;-4.222;2023-02-27T17:46:20;8.90;56.30
44431;DHT22;30135;47.866;-4.222;2023-02-27T17:48:47;8.80;56.20
44431;DHT22;30135;47.866;-4.222;2023-02-27T17:51:15;8.80;56.30
44431;DHT22;30135;47.866;-4.222;2023-02-27T17:53:42;8.70;56.50
44431;DHT22;30135;47.866;-4.222;2023-02-27T17:56:10;8.70;56.60
44431;DHT22;30135;47.866;-4.222;2023-02-27T17:58:37;8.60;56.80
44431;DHT22;30135;47.866;-4.222;2023-02-27T18:01:06;8.70;56.90
44431;DHT22;30135;47.866;-4.222;2023-02-27T18:03:33;8.60;56.90
44431;DHT22;30135;47.866;-4.222;2023-02-27T18:06:00;8.60;57.00
44431;DHT22;30135;47.866;-4.222;2023-02-27T18:08:26;8.50;56.80
44431;DHT22;30135;47.866;-4.222;2023-02-27T18:10:53;8.50;57.20
44431;DHT22;30135;47.866;-4.222;2023-02-27T18:13:20;8.50;57.40
44431;DHT22;30135;47.866;-4.222;2023-02-27T18:15:50;8.50;57.40
44431;DHT22;30135;47.866;-4.222;2023-02-27T18:18:17;8.40;57.30
44431;DHT22;30135;47.866;-4.222;2023-02-27T18:20:43;8.40;57.40
44431;DHT22;30135;47.866;-4.222;2023-02-27T18:23:10;8.30;57.40
44431;DHT22;30135;47.866;-4.222;2023-02-27T18:25:36;8.30;57.40
44431;DHT22;30135;47.866;-4.222;2023-02-27T18:28:04;8.20;57.60
44431;DHT22;30135;47.866;-4.222;2023-02-27T18:30:36;8.20;57.80
44431;DHT22;30135;47.866;-4.222;2023-02-27T18:33:03;8.20;57.80
44431;DHT22;30135;47.866;-4.222;2023-02-27T18:35:29;8.20;57.80
44431;DHT22;30135;47.866;-4.222;2023-02-27T18:37:55;8.20;58.00
44431;DHT22;30135;47.866;-4.222;2023-02-27T18:40:21;8.10;58.00
44431;DHT22;30135;47.866;-4.222;2023-02-27T18:42:49;8.10;58.70